sensor_id;sensor_type;location;lat;lon;timestamp;P1;durP1;ratioP1;P2;durP2;ratioP2
84054;SDS011;74141;51.504;7.122;2024-02-14T00:01:47;5.55;;;3.80;;
84054;SDS011;74141;51.504;7.122;2024-02-14T00:04:12;8.47;;;3.47;;
84054;SDS011;74141;51.504;7.122;2024-02-14T00:06:39;7.07;;;4.05;;
84054;SDS011;74141;51.504;7.122;2024-02-14T00:09:04;4.10;;;3.10;;
84054;SDS011;74141;51.504;7.122;2024-02-14T00:11:31;5.72;;;3.40;;
84054;SDS011;74141;51.504;7.122;2024-02-14T00:13:57;6.00;;;3.90;;
84054;SDS011;74141;51.504;7.122;2024-02-14T00:16:23;6.10;;;3.67;;
84054;SDS011;74141;51.504;7.122;2024-02-14T00:18:49;8.98;;;3.40;;
84054;SDS011;74141;51.504;7.122;2024-02-14T00:21:14;6.57;;;3.08;;
84054;SDS011;74141;51.504;7.122;2024-02-14T00:23:40;6.07;;;3.83;;
84054;SDS011;74141;51.504;7.122;2024-02-14T00:26:05;5.70;;;3.00;;
84054;SDS011;74141;51.504;7.122;2024-02-14T00:28:30;6.60;;;3.30;;
84054;SDS011;74141;51.504;7.122;2024-02-14T00:30:55;8.07;;;3.50;;
84054;SDS011;74141;51.504;7.122;2024-02-14T00:33:21;9.98;;;3.38;;
84054;SDS011;74141;51.504;7.122;2024-02-14T00:35:47;4.55;;;3.10;;
84054;SDS011;74141;51.504;7.122;2024-02-14T00:38:12;7.47;;;3.63;;
84054;SDS011;74141;51.504;7.122;2024-02-14T00:40:37;6.67;;;3.07;;
84054;SDS011;74141;51.504;7.122;2024-02-14T00:43:03;8.40;;;3.80;;
84054;SDS011;74141;51.504;7.122;2024-02-14T00:45:28;7.32;;;3.95;;
84054;SDS011;74141;51.504;7.122;2024-02-14T00:47:53;8.13;;;3.88;;
84054;SDS011;74141;51.504;7.122;2024-02-14T00:50:19;9.13;;;4.30;;
84054;SDS011;74141;51.504;7.122;2024-02-14T00:52:44;5.43;;;3.22;;
84054;SDS011;74141;51.504;7.122;2024-02-14T00:55:09;6.43;;;4.00;;
84054;SDS011;74141;51.504;7.122;2024-02-14T00:57:35;3.88;;;3.03;;
84054;SDS011;74141;51.504;7.122;2024-02-14T01:00:00;11.00;;;3.90;;
84054;SDS011;74141;51.504;7.122;2024-02-14T01:02:25;4.72;;;2.95;;
84054;SDS011;74141;51.504;7.122;2024-02-14T01:04:51;5.07;;;3.67;;
84054;SDS011;74141;51.504;7.122;2024-02-14T01:07:17;5.03;;;3.67;;
84054;SDS011;74141;51.504;7.122;2024-02-14T01:09:42;5.93;;;3.97;;
84054;SDS011;74141;51.504;7.122;2024-02-14T01:12:07;8.10;;;4.10;;
84054;SDS011;74141;51.504;7.122;2024-02-14T01:14:33;7.07;;;3.83;;
84054;SDS011;74141;51.504;7.122;2024-02-14T01:16:58;6.28;;;4.28;;
84054;SDS011;74141;51.504;7.122;2024-02-14T01:19:23;6.15;;;3.88;;
84054;SDS011;74141;51.504;7.122;2024-02-14T01:21:50;6.75;;;3.55;;
84054;SDS011;74141;51.504;7.122;2024-02-14T01:24:15;9.20;;;3.90;;
84054;SDS011;74141;51.504;7.122;2024-02-14T01:26:41;4.80;;;3.67;;
84054;SDS011;74141;51.504;7.122;2024-02-14T01:29:06;9.57;;;4.10;;
84054;SDS011;74141;51.504;7.122;2024-02-14T01:31:32;6.25;;;3.38;;
84054;SDS011;74141;51.504;7.122;2024-02-14T01:33:59;9.48;;;3.72;;
84054;SDS011;74141;51.504;7.122;2024-02-14T01:36:26;5.32;;;3.28;;
84054;SDS011;74141;51.504;7.122;2024-02-14T01:38:52;12.27;;;4.13;;
84054;SDS011;74141;51.504;7.122;2024-02-14T01:41:17;5.93;;;3.20;;
84054;SDS011;74141;51.504;7.122;2024-02-14T01:43:42;5.50;;;3.50;;
84054;SDS011;74141;51.504;7.122;2024-02-14T01:46:09;8.80;;;3.60;;
84054;SDS011;74141;51.504;7.122;2024-02-14T01:48:35;6.72;;;3.55;;
84054;SDS011;74141;51.504;7.122;2024-02-14T01:51:01;7.00;;;3.85;;
84054;SDS011;74141;51.504;7.122;2024-02-14T01:53:28;4.50;;;2.90;;
84054;SDS011;74141;51.504;7.122;2024-02-14T01:55:56;6.05;;;3.70;;
84054;SDS011;74141;51.504;7.122;2024-02-14T01:58:22;4.13;;;2.67;;
84054;SDS011;74141;51.504;7.122;2024-02-14T02:00:47;5.72;;;3.03;;
84054;SDS011;74141;51.504;7.122;2024-02-14T02:03:13;5.00;;;3.05;;
84054;SDS011;74141;51.504;7.122;2024-02-14T02:05:39;5.25;;;3.15;;
84054;SDS011;74141;51.504;7.122;2024-02-14T02:08:14;5.03;;;2.72;;
84054;SDS011;74141;51.504;7.122;2024-02-14T02:10:39;5.50;;;3.28;;
84054;SDS011;74141;51.504;7.122;2024-02-14T02:13:14;4.78;;;3.38;;
84054;SDS011;74141;51.504;7.122;2024-02-14T02:15:40;4.18;;;3.05;;
84054;SDS011;74141;51.504;7.122;2024-02-14T02:18:11;5.00;;;2.92;;
84054;SDS011;74141;51.504;7.122;2024-02-14T02:20:38;4.45;;;2.72;;
84054;SDS011;74141;51.504;7.122;2024-02-14T02:23:12;7.70;;;3.17;;
84054;SDS011;74141;51.504;7.122;2024-02-14T02:25:41;4.90;;;2.70;;
84054;SDS011;74141;51.504;7.122;2024-02-14T02:28:13;5.65;;;2.65;;
84054;SDS011;74141;51.504;7.122;2024-02-14T02:30:39;5.40;;;2.67;;
84054;SDS011;74141;51.504;7.122;2024-02-14T02:33:14;6.38;;;3.28;;
84054;SDS011;74141;51.504;7.122;2024-02-14T02:35:41;4.75;;;2.85;;
84054;SDS011;74141;51.504;7.122;2024-02-14T02:38:13;7.82;;;2.47;;
84054;SDS011;74141;51.504;7.122;2024-02-14T02:40:38;3.38;;;2.40;;
84054;SDS011;74141;51.504;7.122;2024-02-14T02:43:13;3.75;;;2.50;;
84054;SDS011;74141;51.504;7.122;2024-02-14T02:45:38;11.15;;;2.90;;
84054;SDS011;74141;51.504;7.122;2024-02-14T02:48:12;4.47;;;2.47;;
84054;SDS011;74141;51.504;7.122;2024-02-14T02:50:38;4.85;;;2.60;;
84054;SDS011;74141;51.504;7.122;2024-02-14T02:53:12;3.88;;;2.60;;
84054;SDS011;74141;51.504;7.122;2024-02-14T02:55:38;4.82;;;2.58;;
84054;SDS011;74141;51.504;7.122;2024-02-14T02:58:12;5.53;;;2.63;;
84054;SDS011;74141;51.504;7.122;2024-02-14T03:00:38;3.63;;;2.30;;
84054;SDS011;74141;51.504;7.122;2024-02-14T03:03:03;4.10;;;2.50;;
84054;SDS011;74141;51.504;7.122;2024-02-14T03:05:33;3.33;;;2.25;;
84054;SDS011;74141;51.504;7.122;2024-02-14T03:07:58;3.88;;;2.40;;
84054;SDS011;74141;51.504;7.122;2024-02-14T03:10:24;3.65;;;2.10;;
84054;SDS011;74141;51.504;7.122;2024-02-14T03:12:50;4.22;;;2.63;;
84054;SDS011;74141;51.504;7.122;2024-02-14T03:15:16;4.97;;;2.65;;
84054;SDS011;74141;51.504;7.122;2024-02-14T03:17:42;4.25;;;2.80;;
84054;SDS011;74141;51.504;7.122;2024-02-14T03:20:07;4.97;;;2.40;;
84054;SDS011;74141;51.504;7.122;2024-02-14T03:22:39;4.75;;;2.42;;
84054;SDS011;74141;51.504;7.122;2024-02-14T03:25:15;3.47;;;2.08;;
84054;SDS011;74141;51.504;7.122;2024-02-14T03:27:42;4.75;;;2.50;;
84054;SDS011;74141;51.504;7.122;2024-02-14T03:30:10;3.58;;;2.60;;
84054;SDS011;74141;51.504;7.122;2024-02-14T03:32:37;4.15;;;2.75;;
84054;SDS011;74141;51.504;7.122;2024-02-14T03:35:03;5.00;;;2.50;;
84054;SDS011;74141;51.504;7.122;2024-02-14T03:37:28;3.42;;;2.30;;
84054;SDS011;74141;51.504;7.122;2024-02-14T03:39:54;3.97;;;2.70;;
84054;SDS011;74141;51.504;7.122;2024-02-14T03:42:19;4.35;;;2.55;;
84054;SDS011;74141;51.504;7.122;2024-02-14T03:44:45;5.20;;;2.80;;
84054;SDS011;74141;51.504;7.122;2024-02-14T03:47:10;4.38;;;2.67;;
84054;SDS011;74141;51.504;7.122;2024-02-14T03:49:37;4.43;;;2.58;;
84054;SDS011;74141;51.504;7.122;2024-02-14T03:52:03;5.28;;;2.83;;
84054;SDS011;74141;51.504;7.122;2024-02-14T03:54:34;5.30;;;3.33;;
84054;SDS011;74141;51.504;7.122;2024-02-14T03:57:00;3.53;;;2.80;;
84054;SDS011;74141;51.504;7.122;2024-02-14T03:59:25;5.00;;;2.83;;
84054;SDS011;74141;51.504;7.122;2024-02-14T04:01:50;4.33;;;3.27;;
84054;SDS011;74141;51.504;7.122;2024-02-14T04:04:18;4.80;;;3.05;;
84054;SDS011;74141;51.504;7.122;2024-02-14T04:06:43;6.47;;;2.92;;
84054;SDS011;74141;51.504;7.122;2024-02-14T04:09:10;4.65;;;2.80;;
84054;SDS011;74141;51.504;7.122;2024-02-14T04:11:35;5.07;;;2.85;;
84054;SDS011;74141;51.504;7.122;2024-02-14T04:14:01;5.10;;;3.45;;
84054;SDS011;74141;51.504;7.122;2024-02-14T04:16:26;4.20;;;2.40;;
84054;SDS011;74141;51.504;7.122;2024-02-14T04:18:51;6.60;;;2.77;;
84054;SDS011;74141;51.504;7.122;2024-02-14T04:21:18;5.80;;;2.72;;
84054;SDS011;74141;51.504;7.122;2024-02-14T04:23:43;3.90;;;2.57;;
84054;SDS011;74141;51.504;7.122;2024-02-14T04:26:08;4.77;;;2.73;;
84054;SDS011;74141;51.504;7.122;2024-02-14T04:28:34;3.50;;;2.53;;
84054;SDS011;74141;51.504;7.122;2024-02-14T04:30:59;6.75;;;2.97;;
84054;SDS011;74141;51.504;7.122;2024-02-14T04:33:24;4.60;;;2.67;;
84054;SDS011;74141;51.504;7.122;2024-02-14T04:35:50;3.97;;;2.70;;
84054;SDS011;74141;51.504;7.122;2024-02-14T04:38:15;3.47;;;2.47;;
84054;SDS011;74141;51.504;7.122;2024-02-14T04:40:43;6.00;;;2.97;;
84054;SDS011;74141;51.504;7.122;2024-02-14T04:43:09;5.50;;;2.72;;
84054;SDS011;74141;51.504;7.122;2024-02-14T04:45:35;4.45;;;3.13;;
84054;SDS011;74141;51.504;7.122;2024-02-14T04:48:00;6.00;;;3.13;;
84054;SDS011;74141;51.504;7.122;2024-02-14T04:50:26;5.13;;;2.80;;
84054;SDS011;74141;51.504;7.122;2024-02-14T04:52:52;4.07;;;2.85;;
84054;SDS011;74141;51.504;7.122;2024-02-14T04:55:17;4.80;;;2.83;;
84054;SDS011;74141;51.504;7.122;2024-02-14T04:57:42;3.83;;;2.67;;
84054;SDS011;74141;51.504;7.122;2024-02-14T05:00:08;5.15;;;3.03;;
84054;SDS011;74141;51.504;7.122;2024-02-14T05:02:34;4.13;;;2.92;;
84054;SDS011;74141;51.504;7.122;2024-02-14T05:05:00;5.50;;;2.95;;
84054;SDS011;74141;51.504;7.122;2024-02-14T05:07:26;5.32;;;3.70;;
84054;SDS011;74141;51.504;7.122;2024-02-14T05:09:52;4.55;;;2.75;;
84054;SDS011;74141;51.504;7.122;2024-02-14T05:12:17;4.75;;;2.95;;
84054;SDS011;74141;51.504;7.122;2024-02-14T05:14:42;4.40;;;2.75;;
84054;SDS011;74141;51.504;7.122;2024-02-14T05:17:08;5.00;;;3.43;;
84054;SDS011;74141;51.504;7.122;2024-02-14T05:19:33;4.20;;;3.10;;
84054;SDS011;74141;51.504;7.122;2024-02-14T05:21:58;3.60;;;2.90;;
84054;SDS011;74141;51.504;7.122;2024-02-14T05:24:24;5.78;;;3.00;;
84054;SDS011;74141;51.504;7.122;2024-02-14T05:26:52;7.20;;;2.67;;
84054;SDS011;74141;51.504;7.122;2024-02-14T05:29:18;3.40;;;2.60;;
84054;SDS011;74141;51.504;7.122;2024-02-14T05:31:46;5.30;;;2.88;;
84054;SDS011;74141;51.504;7.122;2024-02-14T05:34:13;6.22;;;2.97;;
84054;SDS011;74141;51.504;7.122;2024-02-14T05:36:38;5.60;;;3.33;;
84054;SDS011;74141;51.504;7.122;2024-02-14T05:39:03;4.55;;;2.80;;
84054;SDS011;74141;51.504;7.122;2024-02-14T05:41:31;5.35;;;4.40;;
84054;SDS011;74141;51.504;7.122;2024-02-14T05:43:57;3.90;;;2.88;;
84054;SDS011;74141;51.504;7.122;2024-02-14T05:46:23;4.85;;;2.83;;
84054;SDS011;74141;51.504;7.122;2024-02-14T05:48:48;3.87;;;2.80;;
84054;SDS011;74141;51.504;7.122;2024-02-14T05:51:13;6.37;;;3.10;;
84054;SDS011;74141;51.504;7.122;2024-02-14T05:53:39;4.43;;;3.10;;
84054;SDS011;74141;51.504;7.122;2024-02-14T05:56:04;3.50;;;2.47;;
84054;SDS011;74141;51.504;7.122;2024-02-14T05:58:30;4.38;;;3.15;;
84054;SDS011;74141;51.504;7.122;2024-02-14T06:00:55;6.47;;;3.33;;
84054;SDS011;74141;51.504;7.122;2024-02-14T06:03:20;6.60;;;3.42;;
84054;SDS011;74141;51.504;7.122;2024-02-14T06:05:46;5.18;;;3.50;;
84054;SDS011;74141;51.504;7.122;2024-02-14T06:08:12;4.80;;;3.03;;
84054;SDS011;74141;51.504;7.122;2024-02-14T06:10:37;3.88;;;3.03;;
84054;SDS011;74141;51.504;7.122;2024-02-14T06:13:03;5.25;;;3.40;;
84054;SDS011;74141;51.504;7.122;2024-02-14T06:15:29;6.05;;;4.22;;
84054;SDS011;74141;51.504;7.122;2024-02-14T06:17:54;7.03;;;3.50;;
84054;SDS011;74141;51.504;7.122;2024-02-14T06:20:19;4.35;;;3.40;;
84054;SDS011;74141;51.504;7.122;2024-02-14T06:22:45;4.90;;;3.30;;
84054;SDS011;74141;51.504;7.122;2024-02-14T06:25:10;7.50;;;3.30;;
84054;SDS011;74141;51.504;7.122;2024-02-14T06:27:35;8.67;;;3.63;;
84054;SDS011;74141;51.504;7.122;2024-02-14T06:30:01;4.82;;;3.42;;
84054;SDS011;74141;51.504;7.122;2024-02-14T06:32:26;5.05;;;3.65;;
84054;SDS011;74141;51.504;7.122;2024-02-14T06:34:52;5.83;;;3.80;;
84054;SDS011;74141;51.504;7.122;2024-02-14T06:37:17;7.40;;;3.75;;
84054;SDS011;74141;51.504;7.122;2024-02-14T06:39:42;6.73;;;3.57;;
84054;SDS011;74141;51.504;7.122;2024-02-14T06:42:08;5.23;;;3.87;;
84054;SDS011;74141;51.504;7.122;2024-02-14T06:44:33;6.13;;;4.23;;
84054;SDS011;74141;51.504;7.122;2024-02-14T06:46:58;6.40;;;4.20;;
84054;SDS011;74141;51.504;7.122;2024-02-14T06:49:23;6.37;;;4.43;;
84054;SDS011;74141;51.504;7.122;2024-02-14T06:51:49;6.13;;;3.90;;
84054;SDS011;74141;51.504;7.122;2024-02-14T06:54:14;6.37;;;3.57;;
84054;SDS011;74141;51.504;7.122;2024-02-14T06:56:39;6.53;;;4.53;;
84054;SDS011;74141;51.504;7.122;2024-02-14T06:59:04;11.63;;;4.20;;
84054;SDS011;74141;51.504;7.122;2024-02-14T07:01:30;7.68;;;5.13;;
84054;SDS011;74141;51.504;7.122;2024-02-14T07:03:56;8.27;;;4.93;;
84054;SDS011;74141;51.504;7.122;2024-02-14T07:06:23;7.40;;;4.88;;
84054;SDS011;74141;51.504;7.122;2024-02-14T07:08:48;8.50;;;4.70;;
84054;SDS011;74141;51.504;7.122;2024-02-14T07:11:14;8.00;;;4.90;;
84054;SDS011;74141;51.504;7.122;2024-02-14T07:13:43;8.10;;;5.03;;
84054;SDS011;74141;51.504;7.122;2024-02-14T07:16:08;7.55;;;4.80;;
84054;SDS011;74141;51.504;7.122;2024-02-14T07:18:33;7.17;;;4.50;;
84054;SDS011;74141;51.504;7.122;2024-02-14T07:20:59;6.07;;;4.22;;
84054;SDS011;74141;51.504;7.122;2024-02-14T07:23:24;6.85;;;4.65;;
84054;SDS011;74141;51.504;7.122;2024-02-14T07:25:51;7.28;;;4.45;;
84054;SDS011;74141;51.504;7.122;2024-02-14T07:28:16;6.25;;;4.57;;
84054;SDS011;74141;51.504;7.122;2024-02-14T07:30:42;10.10;;;5.05;;
84054;SDS011;74141;51.504;7.122;2024-02-14T07:33:08;7.45;;;4.90;;
84054;SDS011;74141;51.504;7.122;2024-02-14T07:35:33;6.80;;;5.47;;
84054;SDS011;74141;51.504;7.122;2024-02-14T07:37:58;9.20;;;5.73;;
84054;SDS011;74141;51.504;7.122;2024-02-14T07:40:23;10.13;;;5.53;;
84054;SDS011;74141;51.504;7.122;2024-02-14T07:42:49;10.32;;;6.05;;
84054;SDS011;74141;51.504;7.122;2024-02-14T07:45:14;9.57;;;5.33;;
84054;SDS011;74141;51.504;7.122;2024-02-14T07:47:41;7.10;;;5.25;;
84054;SDS011;74141;51.504;7.122;2024-02-14T07:50:06;6.60;;;4.88;;
84054;SDS011;74141;51.504;7.122;2024-02-14T07:52:32;8.77;;;6.05;;
84054;SDS011;74141;51.504;7.122;2024-02-14T07:54:58;8.85;;;4.97;;
84054;SDS011;74141;51.504;7.122;2024-02-14T07:57:23;7.63;;;5.07;;
84054;SDS011;74141;51.504;7.122;2024-02-14T07:59:50;7.03;;;5.13;;
84054;SDS011;74141;51.504;7.122;2024-02-14T08:02:16;6.43;;;5.00;;
84054;SDS011;74141;51.504;7.122;2024-02-14T08:04:41;9.50;;;5.10;;
84054;SDS011;74141;51.504;7.122;2024-02-14T08:07:07;10.03;;;5.60;;
84054;SDS011;74141;51.504;7.122;2024-02-14T08:09:32;9.40;;;4.72;;
84054;SDS011;74141;51.504;7.122;2024-02-14T08:11:58;6.82;;;4.63;;
84054;SDS011;74141;51.504;7.122;2024-02-14T08:14:23;7.93;;;4.90;;
84054;SDS011;74141;51.504;7.122;2024-02-14T08:16:48;10.38;;;4.80;;
84054;SDS011;74141;51.504;7.122;2024-02-14T08:19:14;7.82;;;4.70;;
84054;SDS011;74141;51.504;7.122;2024-02-14T08:21:40;6.60;;;4.38;;
84054;SDS011;74141;51.504;7.122;2024-02-14T08:24:06;7.25;;;4.72;;
84054;SDS011;74141;51.504;7.122;2024-02-14T08:26:31;7.73;;;4.47;;
84054;SDS011;74141;51.504;7.122;2024-02-14T08:28:57;7.05;;;4.50;;
84054;SDS011;74141;51.504;7.122;2024-02-14T08:31:23;7.53;;;3.92;;
84054;SDS011;74141;51.504;7.122;2024-02-14T08:33:48;7.13;;;3.67;;
84054;SDS011;74141;51.504;7.122;2024-02-14T08:36:13;7.40;;;4.27;;
84054;SDS011;74141;51.504;7.122;2024-02-14T08:38:39;9.77;;;4.70;;
84054;SDS011;74141;51.504;7.122;2024-02-14T08:41:04;4.53;;;3.40;;
84054;SDS011;74141;51.504;7.122;2024-02-14T08:43:30;5.43;;;3.72;;
84054;SDS011;74141;51.504;7.122;2024-02-14T08:45:55;7.40;;;4.55;;
84054;SDS011;74141;51.504;7.122;2024-02-14T08:48:21;8.05;;;3.78;;
84054;SDS011;74141;51.504;7.122;2024-02-14T08:50:47;5.88;;;3.17;;
84054;SDS011;74141;51.504;7.122;2024-02-14T08:53:13;8.88;;;3.45;;
84054;SDS011;74141;51.504;7.122;2024-02-14T08:55:39;4.75;;;3.08;;
84054;SDS011;74141;51.504;7.122;2024-02-14T08:58:05;4.75;;;3.08;;
84054;SDS011;74141;51.504;7.122;2024-02-14T09:00:30;5.35;;;3.75;;
84054;SDS011;74141;51.504;7.122;2024-02-14T09:02:56;6.50;;;3.80;;
84054;SDS011;74141;51.504;7.122;2024-02-14T09:05:21;9.27;;;3.57;;
84054;SDS011;74141;51.504;7.122;2024-02-14T09:07:47;8.90;;;4.05;;
84054;SDS011;74141;51.504;7.122;2024-02-14T09:10:13;7.53;;;3.47;;
84054;SDS011;74141;51.504;7.122;2024-02-14T09:12:38;8.02;;;4.35;;
84054;SDS011;74141;51.504;7.122;2024-02-14T09:15:06;7.68;;;3.58;;
84054;SDS011;74141;51.504;7.122;2024-02-14T09:17:32;5.78;;;3.65;;
84054;SDS011;74141;51.504;7.122;2024-02-14T09:19:57;8.13;;;3.47;;
84054;SDS011;74141;51.504;7.122;2024-02-14T09:22:22;5.90;;;3.47;;
84054;SDS011;74141;51.504;7.122;2024-02-14T09:24:48;8.73;;;2.80;;
84054;SDS011;74141;51.504;7.122;2024-02-14T09:27:14;6.15;;;3.00;;
84054;SDS011;74141;51.504;7.122;2024-02-14T09:29:39;7.90;;;3.20;;
84054;SDS011;74141;51.504;7.122;2024-02-14T09:32:05;9.67;;;3.10;;
84054;SDS011;74141;51.504;7.122;2024-02-14T09:34:30;6.03;;;2.75;;
84054;SDS011;74141;51.504;7.122;2024-02-14T09:36:56;6.25;;;3.08;;
84054;SDS011;74141;51.504;7.122;2024-02-14T09:39:23;6.32;;;3.60;;
84054;SDS011;74141;51.504;7.122;2024-02-14T09:41:51;5.07;;;2.97;;
84054;SDS011;74141;51.504;7.122;2024-02-14T09:44:19;9.35;;;3.47;;
84054;SDS011;74141;51.504;7.122;2024-02-14T09:46:46;6.25;;;4.50;;
84054;SDS011;74141;51.504;7.122;2024-02-14T09:49:12;7.03;;;3.90;;
84054;SDS011;74141;51.504;7.122;2024-02-14T09:51:41;7.15;;;4.43;;
84054;SDS011;74141;51.504;7.122;2024-02-14T09:54:09;7.90;;;4.65;;
84054;SDS011;74141;51.504;7.122;2024-02-14T09:56:36;9.38;;;4.55;;
84054;SDS011;74141;51.504;7.122;2024-02-14T09:59:01;11.27;;;5.00;;
84054;SDS011;74141;51.504;7.122;2024-02-14T10:01:27;8.82;;;5.00;;
84054;SDS011;74141;51.504;7.122;2024-02-14T10:10:37;9.07;;;5.38;;
84054;SDS011;74141;51.504;7.122;2024-02-14T10:13:03;11.27;;;6.10;;
84054;SDS011;74141;51.504;7.122;2024-02-14T10:15:30;10.52;;;5.68;;
84054;SDS011;74141;51.504;7.122;2024-02-14T10:17:55;9.27;;;5.80;;
84054;SDS011;74141;51.504;7.122;2024-02-14T10:20:22;7.30;;;5.07;;
84054;SDS011;74141;51.504;7.122;2024-02-14T10:22:47;9.20;;;5.17;;
84054;SDS011;74141;51.504;7.122;2024-02-14T10:25:13;8.52;;;5.35;;
84054;SDS011;74141;51.504;7.122;2024-02-14T10:27:39;11.23;;;5.25;;
84054;SDS011;74141;51.504;7.122;2024-02-14T10:30:06;8.57;;;4.60;;
84054;SDS011;74141;51.504;7.122;2024-02-14T10:32:37;9.48;;;5.57;;
84054;SDS011;74141;51.504;7.122;2024-02-14T10:35:05;8.05;;;5.13;;
84054;SDS011;74141;51.504;7.122;2024-02-14T10:37:36;6.30;;;4.50;;
84054;SDS011;74141;51.504;7.122;2024-02-14T10:40:02;10.48;;;5.22;;
84054;SDS011;74141;51.504;7.122;2024-02-14T10:42:29;6.90;;;5.15;;
84054;SDS011;74141;51.504;7.122;2024-02-14T10:44:55;6.60;;;4.57;;
84054;SDS011;74141;51.504;7.122;2024-02-14T10:47:21;7.20;;;4.75;;
84054;SDS011;74141;51.504;7.122;2024-02-14T10:49:57;5.65;;;4.50;;
84054;SDS011;74141;51.504;7.122;2024-02-14T10:52:30;8.82;;;5.22;;
84054;SDS011;74141;51.504;7.122;2024-02-14T10:55:01;9.60;;;5.15;;
84054;SDS011;74141;51.504;7.122;2024-02-14T10:57:28;9.40;;;5.13;;
84054;SDS011;74141;51.504;7.122;2024-02-14T10:59:54;8.18;;;4.90;;
84054;SDS011;74141;51.504;7.122;2024-02-14T11:02:22;10.32;;;5.32;;
84054;SDS011;74141;51.504;7.122;2024-02-14T11:04:49;6.40;;;4.40;;
84054;SDS011;74141;51.504;7.122;2024-02-14T11:07:18;10.90;;;5.07;;
84054;SDS011;74141;51.504;7.122;2024-02-14T11:09:45;9.00;;;5.15;;
84054;SDS011;74141;51.504;7.122;2024-02-14T11:12:10;11.05;;;5.05;;
84054;SDS011;74141;51.504;7.122;2024-02-14T11:14:36;9.15;;;4.60;;
84054;SDS011;74141;51.504;7.122;2024-02-14T11:17:03;10.10;;;4.70;;
84054;SDS011;74141;51.504;7.122;2024-02-14T11:19:34;10.18;;;4.85;;
84054;SDS011;74141;51.504;7.122;2024-02-14T11:22:09;8.00;;;4.30;;
84054;SDS011;74141;51.504;7.122;2024-02-14T11:24:36;9.38;;;4.82;;
84054;SDS011;74141;51.504;7.122;2024-02-14T11:27:02;10.30;;;4.77;;
84054;SDS011;74141;51.504;7.122;2024-02-14T11:29:31;8.95;;;4.90;;
84054;SDS011;74141;51.504;7.122;2024-02-14T11:31:59;8.68;;;4.68;;
84054;SDS011;74141;51.504;7.122;2024-02-14T11:34:25;6.82;;;4.47;;
84054;SDS011;74141;51.504;7.122;2024-02-14T11:36:51;9.25;;;4.45;;
84054;SDS011;74141;51.504;7.122;2024-02-14T11:39:16;9.48;;;4.63;;
84054;SDS011;74141;51.504;7.122;2024-02-14T11:41:41;12.90;;;8.60;;
84054;SDS011;74141;51.504;7.122;2024-02-14T11:44:10;6.10;;;4.47;;
84054;SDS011;74141;51.504;7.122;2024-02-14T11:46:36;10.93;;;5.53;;
84054;SDS011;74141;51.504;7.122;2024-02-14T11:49:03;13.65;;;5.32;;
84054;SDS011;74141;51.504;7.122;2024-02-14T11:51:30;11.30;;;5.15;;
84054;SDS011;74141;51.504;7.122;2024-02-14T11:54:00;7.82;;;4.30;;
84054;SDS011;74141;51.504;7.122;2024-02-14T11:56:35;8.52;;;4.65;;
84054;SDS011;74141;51.504;7.122;2024-02-14T11:59:06;10.38;;;4.40;;
84054;SDS011;74141;51.504;7.122;2024-02-14T12:01:36;8.85;;;4.60;;
84054;SDS011;74141;51.504;7.122;2024-02-14T12:04:04;9.65;;;4.38;;
84054;SDS011;74141;51.504;7.122;2024-02-14T12:06:32;8.50;;;4.18;;
84054;SDS011;74141;51.504;7.122;2024-02-14T12:09:00;6.18;;;3.72;;
84054;SDS011;74141;51.504;7.122;2024-02-14T12:11:34;8.43;;;3.95;;
84054;SDS011;74141;51.504;7.122;2024-02-14T12:14:04;7.50;;;3.22;;
84054;SDS011;74141;51.504;7.122;2024-02-14T12:16:30;8.63;;;3.63;;
84054;SDS011;74141;51.504;7.122;2024-02-14T12:19:07;7.15;;;3.70;;
84054;SDS011;74141;51.504;7.122;2024-02-14T12:21:34;7.32;;;3.88;;
84054;SDS011;74141;51.504;7.122;2024-02-14T12:24:01;9.68;;;3.22;;
84054;SDS011;74141;51.504;7.122;2024-02-14T12:26:27;6.97;;;3.88;;
84054;SDS011;74141;51.504;7.122;2024-02-14T12:28:52;5.82;;;3.22;;
84054;SDS011;74141;51.504;7.122;2024-02-14T12:31:21;6.57;;;3.45;;
84054;SDS011;74141;51.504;7.122;2024-02-14T12:33:50;8.55;;;3.47;;
84054;SDS011;74141;51.504;7.122;2024-02-14T12:36:19;10.93;;;3.63;;
84054;SDS011;74141;51.504;7.122;2024-02-14T12:38:45;6.82;;;3.47;;
84054;SDS011;74141;51.504;7.122;2024-02-14T12:41:10;6.38;;;3.70;;
84054;SDS011;74141;51.504;7.122;2024-02-14T12:43:35;5.63;;;3.97;;
84054;SDS011;74141;51.504;7.122;2024-02-14T12:46:01;8.77;;;4.03;;
84054;SDS011;74141;51.504;7.122;2024-02-14T12:48:26;10.02;;;3.90;;
84054;SDS011;74141;51.504;7.122;2024-02-14T12:50:53;6.10;;;3.63;;
84054;SDS011;74141;51.504;7.122;2024-02-14T12:53:19;8.55;;;3.55;;
84054;SDS011;74141;51.504;7.122;2024-02-14T12:55:46;7.68;;;3.58;;
84054;SDS011;74141;51.504;7.122;2024-02-14T12:58:11;8.90;;;3.88;;
84054;SDS011;74141;51.504;7.122;2024-02-14T13:00:37;7.85;;;3.38;;
84054;SDS011;74141;51.504;7.122;2024-02-14T13:03:03;4.13;;;3.28;;
84054;SDS011;74141;51.504;7.122;2024-02-14T13:05:29;6.85;;;3.25;;
84054;SDS011;74141;51.504;7.122;2024-02-14T13:07:55;7.07;;;3.17;;
84054;SDS011;74141;51.504;7.122;2024-02-14T13:10:20;5.65;;;3.03;;
84054;SDS011;74141;51.504;7.122;2024-02-14T13:12:45;5.72;;;3.58;;
84054;SDS011;74141;51.504;7.122;2024-02-14T13:15:11;8.98;;;3.80;;
84054;SDS011;74141;51.504;7.122;2024-02-14T13:17:36;9.63;;;4.20;;
84054;SDS011;74141;51.504;7.122;2024-02-14T13:20:02;6.10;;;3.83;;
84054;SDS011;74141;51.504;7.122;2024-02-14T13:22:27;6.55;;;3.45;;
84054;SDS011;74141;51.504;7.122;2024-02-14T13:24:52;7.72;;;3.65;;
84054;SDS011;74141;51.504;7.122;2024-02-14T13:27:18;7.43;;;4.25;;
84054;SDS011;74141;51.504;7.122;2024-02-14T13:29:46;7.63;;;3.90;;
84054;SDS011;74141;51.504;7.122;2024-02-14T13:32:12;5.60;;;3.67;;
84054;SDS011;74141;51.504;7.122;2024-02-14T13:34:37;8.80;;;3.70;;
84054;SDS011;74141;51.504;7.122;2024-02-14T13:37:03;6.03;;;3.75;;
84054;SDS011;74141;51.504;7.122;2024-02-14T13:39:29;7.28;;;3.40;;
84054;SDS011;74141;51.504;7.122;2024-02-14T13:41:54;7.57;;;3.42;;
84054;SDS011;74141;51.504;7.122;2024-02-14T13:44:23;5.88;;;2.83;;
84054;SDS011;74141;51.504;7.122;2024-02-14T13:46:49;7.38;;;3.47;;
84054;SDS011;74141;51.504;7.122;2024-02-14T13:49:18;7.80;;;3.58;;
84054;SDS011;74141;51.504;7.122;2024-02-14T13:51:52;4.32;;;3.28;;
84054;SDS011;74141;51.504;7.122;2024-02-14T13:54:21;5.15;;;3.00;;
84054;SDS011;74141;51.504;7.122;2024-02-14T13:56:47;8.07;;;3.72;;
84054;SDS011;74141;51.504;7.122;2024-02-14T13:59:15;4.40;;;2.88;;
84054;SDS011;74141;51.504;7.122;2024-02-14T14:01:41;6.50;;;3.17;;
84054;SDS011;74141;51.504;7.122;2024-02-14T14:04:07;5.25;;;2.92;;
84054;SDS011;74141;51.504;7.122;2024-02-14T14:06:32;4.20;;;3.03;;
84054;SDS011;74141;51.504;7.122;2024-02-14T14:08:57;5.88;;;3.60;;
84054;SDS011;74141;51.504;7.122;2024-02-14T14:11:24;4.88;;;3.15;;
84054;SDS011;74141;51.504;7.122;2024-02-14T14:13:49;8.02;;;3.60;;
84054;SDS011;74141;51.504;7.122;2024-02-14T14:16:15;3.97;;;3.05;;
84054;SDS011;74141;51.504;7.122;2024-02-14T14:18:40;6.18;;;3.45;;
84054;SDS011;74141;51.504;7.122;2024-02-14T14:21:05;5.60;;;3.30;;
84054;SDS011;74141;51.504;7.122;2024-02-14T14:23:31;9.05;;;3.70;;
84054;SDS011;74141;51.504;7.122;2024-02-14T14:25:57;10.88;;;3.88;;
84054;SDS011;74141;51.504;7.122;2024-02-14T14:28:23;7.68;;;3.58;;
84054;SDS011;74141;51.504;7.122;2024-02-14T14:30:56;7.30;;;3.47;;
84054;SDS011;74141;51.504;7.122;2024-02-14T14:33:21;6.80;;;2.90;;
84054;SDS011;74141;51.504;7.122;2024-02-14T14:35:47;7.22;;;2.92;;
84054;SDS011;74141;51.504;7.122;2024-02-14T14:38:15;4.82;;;2.70;;
84054;SDS011;74141;51.504;7.122;2024-02-14T14:40:40;5.22;;;3.80;;
84054;SDS011;74141;51.504;7.122;2024-02-14T14:43:06;7.80;;;2.67;;
84054;SDS011;74141;51.504;7.122;2024-02-14T14:45:32;4.65;;;2.85;;
84054;SDS011;74141;51.504;7.122;2024-02-14T14:47:57;6.13;;;3.50;;